XS73 weather

Public forecast

Using degrees Fahrenheit for public forecast. Weather courtesy of forecast.io.

Closest aviation weather report (METAR) to Scott & White Medical Center - College Station Heliport

Closest report is Easterwood Field, 4.4 nm (8.2 km) W. Retrieved 2020/08/10 06:53 UTC (28 minutes ago):

KCLL 100653Z AUTO 16008KT 10SM CLR 27/24 A3005 RMK AO2 SLP170 T02670244

Closest aviation forecast (TAF) to Scott & White Medical Center - College Station Heliport

Closest forecast is Easterwood Field, 4.4 nm (8.2 km) W. Retrieved 2020/08/10 06:22 UTC (59 minutes ago):

TAF KCLL 100520Z 1006/1106 17006KT P6SM SKC FM101100 17004KT P6SM BKN015 FM101500 19010KT P6SM SCT030 FM101800 17011KT P6SM FEW050